North Stockholm, New York
Current Conditions -  °F | °C
As of 5:53 AM on Friday 19 Dec 2014 (Local Time) from KMSS Reporting Station
Overcast Overcast  
Wind Chill: 12°   Ceiling: 1700
Heat Index: 23°   Visibility: 10mi
Dew Point: 16°   Wind: 12mph
Humidity: 74%   Direction: 280°W
Pressure: 30.05"   Gusts: NA
Location:  44.7612°N, 74.9585°W
Report Text: KMSS 191053Z AUTO 28010KT 10SM OVC017 M05/M09 A3005 RMK AO2 SLP183 T10501089
Loading
Personal Weather Stations






























Interactive Weather Map New forecast layout! Learn more

10-Day Weather Forecast

Advertisements
Track Severe Weather on mobile